sensor_id;sensor_type;location;lat;lon;timestamp;P1;durP1;ratioP1;P2;durP2;ratioP2
64244;SDS011;50584;29.058;-110.966;2023-07-28T00:01:34;10.30;;;2.13;;
64244;SDS011;50584;29.058;-110.966;2023-07-28T00:03:59;10.00;;;2.17;;
64244;SDS011;50584;29.058;-110.966;2023-07-28T00:06:25;6.47;;;2.20;;
64244;SDS011;50584;29.058;-110.966;2023-07-28T00:08:51;9.68;;;2.20;;
64244;SDS011;50584;29.058;-110.966;2023-07-28T00:11:17;11.18;;;2.20;;
64244;SDS011;50584;29.058;-110.966;2023-07-28T00:13:42;8.73;;;2.47;;
64244;SDS011;50584;29.058;-110.966;2023-07-28T00:16:09;16.35;;;2.60;;
64244;SDS011;50584;29.058;-110.966;2023-07-28T00:18:35;12.50;;;2.33;;
64244;SDS011;50584;29.058;-110.966;2023-07-28T00:21:01;9.85;;;2.22;;
64244;SDS011;50584;29.058;-110.966;2023-07-28T00:23:28;13.32;;;2.88;;
64244;SDS011;50584;29.058;-110.966;2023-07-28T00:25:53;15.55;;;2.33;;
64244;SDS011;50584;29.058;-110.966;2023-07-28T00:28:19;10.90;;;2.83;;
64244;SDS011;50584;29.058;-110.966;2023-07-28T00:30:48;6.45;;;2.00;;
64244;SDS011;50584;29.058;-110.966;2023-07-28T00:33:15;6.65;;;2.65;;
64244;SDS011;50584;29.058;-110.966;2023-07-28T00:35:40;7.38;;;1.92;;
64244;SDS011;50584;29.058;-110.966;2023-07-28T00:38:06;5.38;;;1.63;;
64244;SDS011;50584;29.058;-110.966;2023-07-28T00:40:32;6.70;;;2.17;;
64244;SDS011;50584;29.058;-110.966;2023-07-28T00:42:58;10.52;;;2.28;;
64244;SDS011;50584;29.058;-110.966;2023-07-28T00:45:23;13.50;;;2.60;;
64244;SDS011;50584;29.058;-110.966;2023-07-28T00:47:49;11.07;;;3.45;;
64244;SDS011;50584;29.058;-110.966;2023-07-28T00:50:15;10.63;;;2.17;;
64244;SDS011;50584;29.058;-110.966;2023-07-28T00:52:41;8.15;;;2.35;;
64244;SDS011;50584;29.058;-110.966;2023-07-28T00:55:07;9.95;;;2.17;;
64244;SDS011;50584;29.058;-110.966;2023-07-28T00:57:33;10.13;;;1.98;;
64244;SDS011;50584;29.058;-110.966;2023-07-28T00:59:59;8.23;;;2.05;;
64244;SDS011;50584;29.058;-110.966;2023-07-28T01:02:25;11.82;;;2.53;;
64244;SDS011;50584;29.058;-110.966;2023-07-28T01:04:51;10.80;;;2.28;;
64244;SDS011;50584;29.058;-110.966;2023-07-28T01:07:23;4.82;;;2.17;;
64244;SDS011;50584;29.058;-110.966;2023-07-28T01:10:08;9.70;;;2.58;;
64244;SDS011;50584;29.058;-110.966;2023-07-28T01:12:36;6.13;;;2.40;;
64244;SDS011;50584;29.058;-110.966;2023-07-28T01:15:02;7.20;;;2.40;;
64244;SDS011;50584;29.058;-110.966;2023-07-28T01:17:28;3.97;;;2.17;;
64244;SDS011;50584;29.058;-110.966;2023-07-28T01:19:54;6.57;;;1.92;;
64244;SDS011;50584;29.058;-110.966;2023-07-28T01:24:55;8.73;;;1.98;;
64244;SDS011;50584;29.058;-110.966;2023-07-28T01:27:26;8.52;;;2.05;;
64244;SDS011;50584;29.058;-110.966;2023-07-28T01:29:52;7.45;;;1.90;;
64244;SDS011;50584;29.058;-110.966;2023-07-28T01:32:18;14.43;;;2.67;;
64244;SDS011;50584;29.058;-110.966;2023-07-28T01:34:44;8.55;;;2.15;;
64244;SDS011;50584;29.058;-110.966;2023-07-28T01:37:10;4.55;;;2.13;;
64244;SDS011;50584;29.058;-110.966;2023-07-28T01:39:36;5.68;;;2.00;;
64244;SDS011;50584;29.058;-110.966;2023-07-28T01:42:01;5.40;;;2.03;;
64244;SDS011;50584;29.058;-110.966;2023-07-28T01:44:27;6.60;;;2.30;;
64244;SDS011;50584;29.058;-110.966;2023-07-28T01:46:53;6.65;;;2.55;;
64244;SDS011;50584;29.058;-110.966;2023-07-28T01:49:19;5.50;;;1.90;;
64244;SDS011;50584;29.058;-110.966;2023-07-28T01:51:45;4.30;;;2.00;;
64244;SDS011;50584;29.058;-110.966;2023-07-28T01:54:11;5.28;;;2.20;;
64244;SDS011;50584;29.058;-110.966;2023-07-28T01:56:36;9.93;;;2.70;;
64244;SDS011;50584;29.058;-110.966;2023-07-28T01:59:02;8.73;;;1.88;;
64244;SDS011;50584;29.058;-110.966;2023-07-28T02:01:28;8.00;;;2.00;;
64244;SDS011;50584;29.058;-110.966;2023-07-28T02:03:54;12.75;;;2.40;;
64244;SDS011;50584;29.058;-110.966;2023-07-28T02:06:20;2.50;;;1.77;;
64244;SDS011;50584;29.058;-110.966;2023-07-28T02:08:45;9.80;;;2.17;;
64244;SDS011;50584;29.058;-110.966;2023-07-28T02:11:11;11.70;;;2.22;;
64244;SDS011;50584;29.058;-110.966;2023-07-28T02:13:37;10.32;;;2.50;;
64244;SDS011;50584;29.058;-110.966;2023-07-28T02:16:03;5.82;;;1.92;;
64244;SDS011;50584;29.058;-110.966;2023-07-28T02:18:28;8.55;;;2.17;;
64244;SDS011;50584;29.058;-110.966;2023-07-28T02:20:54;9.43;;;2.42;;
64244;SDS011;50584;29.058;-110.966;2023-07-28T02:23:20;6.20;;;4.20;;
64244;SDS011;50584;29.058;-110.966;2023-07-28T02:25:46;7.10;;;2.53;;
64244;SDS011;50584;29.058;-110.966;2023-07-28T02:28:12;6.97;;;2.38;;
64244;SDS011;50584;29.058;-110.966;2023-07-28T02:30:37;8.43;;;2.13;;
64244;SDS011;50584;29.058;-110.966;2023-07-28T02:33:03;4.55;;;2.08;;
64244;SDS011;50584;29.058;-110.966;2023-07-28T02:35:29;8.30;;;2.60;;
64244;SDS011;50584;29.058;-110.966;2023-07-28T02:37:57;5.38;;;2.40;;
64244;SDS011;50584;29.058;-110.966;2023-07-28T02:40:23;14.15;;;2.10;;
64244;SDS011;50584;29.058;-110.966;2023-07-28T02:42:49;4.22;;;2.30;;
64244;SDS011;50584;29.058;-110.966;2023-07-28T02:45:15;3.05;;;2.25;;
64244;SDS011;50584;29.058;-110.966;2023-07-28T02:47:40;8.00;;;2.47;;
64244;SDS011;50584;29.058;-110.966;2023-07-28T02:50:06;9.75;;;2.13;;
64244;SDS011;50584;29.058;-110.966;2023-07-28T02:52:32;6.43;;;2.70;;
64244;SDS011;50584;29.058;-110.966;2023-07-28T02:54:58;10.05;;;2.40;;
64244;SDS011;50584;29.058;-110.966;2023-07-28T02:57:24;4.50;;;2.13;;
64244;SDS011;50584;29.058;-110.966;2023-07-28T02:59:49;13.95;;;2.95;;
64244;SDS011;50584;29.058;-110.966;2023-07-28T03:02:15;5.60;;;2.17;;
64244;SDS011;50584;29.058;-110.966;2023-07-28T03:04:41;8.13;;;2.35;;
64244;SDS011;50584;29.058;-110.966;2023-07-28T03:07:07;7.50;;;2.03;;
64244;SDS011;50584;29.058;-110.966;2023-07-28T03:09:32;5.93;;;2.30;;
64244;SDS011;50584;29.058;-110.966;2023-07-28T03:11:58;9.85;;;2.40;;
64244;SDS011;50584;29.058;-110.966;2023-07-28T03:14:24;6.97;;;2.22;;
64244;SDS011;50584;29.058;-110.966;2023-07-28T03:16:49;6.90;;;2.13;;
64244;SDS011;50584;29.058;-110.966;2023-07-28T03:19:15;4.70;;;2.20;;
64244;SDS011;50584;29.058;-110.966;2023-07-28T03:21:42;6.72;;;2.13;;
64244;SDS011;50584;29.058;-110.966;2023-07-28T03:24:08;4.13;;;2.15;;
64244;SDS011;50584;29.058;-110.966;2023-07-28T03:26:34;5.88;;;2.30;;
64244;SDS011;50584;29.058;-110.966;2023-07-28T03:29:00;9.50;;;3.53;;
64244;SDS011;50584;29.058;-110.966;2023-07-28T03:31:25;9.73;;;5.10;;
64244;SDS011;50584;29.058;-110.966;2023-07-28T03:33:51;8.95;;;3.58;;
64244;SDS011;50584;29.058;-110.966;2023-07-28T03:36:17;9.70;;;4.45;;
64244;SDS011;50584;29.058;-110.966;2023-07-28T03:38:44;8.73;;;4.82;;
64244;SDS011;50584;29.058;-110.966;2023-07-28T03:41:10;7.43;;;2.63;;
64244;SDS011;50584;29.058;-110.966;2023-07-28T03:43:36;7.05;;;2.00;;
64244;SDS011;50584;29.058;-110.966;2023-07-28T03:46:02;10.27;;;3.03;;
64244;SDS011;50584;29.058;-110.966;2023-07-28T03:48:27;3.83;;;2.78;;
64244;SDS011;50584;29.058;-110.966;2023-07-28T03:50:53;6.82;;;2.70;;
64244;SDS011;50584;29.058;-110.966;2023-07-28T03:53:19;2.22;;;1.83;;
64244;SDS011;50584;29.058;-110.966;2023-07-28T03:55:45;5.25;;;2.05;;
64244;SDS011;50584;29.058;-110.966;2023-07-28T03:58:10;9.98;;;2.03;;
64244;SDS011;50584;29.058;-110.966;2023-07-28T04:00:36;11.98;;;2.45;;
64244;SDS011;50584;29.058;-110.966;2023-07-28T04:03:02;5.80;;;3.80;;
64244;SDS011;50584;29.058;-110.966;2023-07-28T04:05:28;8.43;;;2.67;;
64244;SDS011;50584;29.058;-110.966;2023-07-28T04:07:53;7.65;;;3.05;;
64244;SDS011;50584;29.058;-110.966;2023-07-28T04:10:19;4.50;;;2.50;;
64244;SDS011;50584;29.058;-110.966;2023-07-28T04:12:45;6.70;;;2.47;;
64244;SDS011;50584;29.058;-110.966;2023-07-28T04:15:11;4.63;;;1.90;;
64244;SDS011;50584;29.058;-110.966;2023-07-28T04:17:36;7.35;;;2.78;;
64244;SDS011;50584;29.058;-110.966;2023-07-28T04:20:02;9.35;;;2.30;;
64244;SDS011;50584;29.058;-110.966;2023-07-28T04:22:28;5.88;;;2.28;;
64244;SDS011;50584;29.058;-110.966;2023-07-28T04:24:54;9.45;;;2.03;;
64244;SDS011;50584;29.058;-110.966;2023-07-28T04:27:19;7.75;;;2.55;;
64244;SDS011;50584;29.058;-110.966;2023-07-28T04:29:45;7.20;;;2.17;;
64244;SDS011;50584;29.058;-110.966;2023-07-28T04:32:11;5.80;;;2.13;;
64244;SDS011;50584;29.058;-110.966;2023-07-28T04:34:37;4.85;;;1.85;;
64244;SDS011;50584;29.058;-110.966;2023-07-28T04:37:02;3.67;;;1.90;;
64244;SDS011;50584;29.058;-110.966;2023-07-28T04:39:28;5.72;;;1.85;;
64244;SDS011;50584;29.058;-110.966;2023-07-28T04:41:54;5.80;;;1.85;;
64244;SDS011;50584;29.058;-110.966;2023-07-28T04:44:20;4.45;;;1.98;;
64244;SDS011;50584;29.058;-110.966;2023-07-28T04:46:45;20.33;;;2.33;;
64244;SDS011;50584;29.058;-110.966;2023-07-28T04:49:14;6.05;;;2.17;;
64244;SDS011;50584;29.058;-110.966;2023-07-28T04:51:40;8.57;;;2.75;;
64244;SDS011;50584;29.058;-110.966;2023-07-28T04:54:05;9.93;;;2.20;;
64244;SDS011;50584;29.058;-110.966;2023-07-28T04:56:31;6.85;;;2.38;;
64244;SDS011;50584;29.058;-110.966;2023-07-28T04:58:57;9.02;;;2.88;;
64244;SDS011;50584;29.058;-110.966;2023-07-28T05:01:24;11.82;;;2.90;;
64244;SDS011;50584;29.058;-110.966;2023-07-28T05:03:50;6.32;;;2.95;;
64244;SDS011;50584;29.058;-110.966;2023-07-28T05:06:15;10.48;;;3.00;;
64244;SDS011;50584;29.058;-110.966;2023-07-28T05:08:41;13.13;;;2.80;;
64244;SDS011;50584;29.058;-110.966;2023-07-28T05:11:07;11.77;;;2.78;;
64244;SDS011;50584;29.058;-110.966;2023-07-28T05:13:33;8.43;;;2.63;;
64244;SDS011;50584;29.058;-110.966;2023-07-28T05:15:58;6.22;;;2.53;;
64244;SDS011;50584;29.058;-110.966;2023-07-28T05:18:25;11.95;;;2.60;;
64244;SDS011;50584;29.058;-110.966;2023-07-28T05:20:50;8.55;;;2.70;;
64244;SDS011;50584;29.058;-110.966;2023-07-28T05:23:16;9.18;;;2.88;;
64244;SDS011;50584;29.058;-110.966;2023-07-28T05:25:42;7.85;;;3.22;;
64244;SDS011;50584;29.058;-110.966;2023-07-28T05:28:08;9.38;;;2.83;;
64244;SDS011;50584;29.058;-110.966;2023-07-28T05:30:33;9.50;;;2.75;;
64244;SDS011;50584;29.058;-110.966;2023-07-28T05:32:59;8.63;;;2.58;;
64244;SDS011;50584;29.058;-110.966;2023-07-28T05:35:25;7.47;;;2.72;;
64244;SDS011;50584;29.058;-110.966;2023-07-28T05:37:51;10.32;;;2.45;;
64244;SDS011;50584;29.058;-110.966;2023-07-28T05:40:16;6.55;;;2.80;;
64244;SDS011;50584;29.058;-110.966;2023-07-28T05:42:42;7.20;;;2.92;;
64244;SDS011;50584;29.058;-110.966;2023-07-28T05:45:08;3.78;;;2.40;;
64244;SDS011;50584;29.058;-110.966;2023-07-28T05:47:34;9.50;;;2.20;;
64244;SDS011;50584;29.058;-110.966;2023-07-28T05:50:00;2.80;;;1.88;;
64244;SDS011;50584;29.058;-110.966;2023-07-28T05:52:26;3.35;;;2.50;;
64244;SDS011;50584;29.058;-110.966;2023-07-28T05:54:52;9.23;;;2.42;;
64244;SDS011;50584;29.058;-110.966;2023-07-28T05:57:17;5.80;;;2.10;;
64244;SDS011;50584;29.058;-110.966;2023-07-28T05:59:43;4.47;;;2.10;;
64244;SDS011;50584;29.058;-110.966;2023-07-28T06:02:09;4.35;;;1.88;;
64244;SDS011;50584;29.058;-110.966;2023-07-28T06:04:34;6.38;;;1.83;;
64244;SDS011;50584;29.058;-110.966;2023-07-28T06:07:00;5.05;;;1.92;;
64244;SDS011;50584;29.058;-110.966;2023-07-28T06:09:26;5.60;;;1.73;;
64244;SDS011;50584;29.058;-110.966;2023-07-28T06:11:52;3.58;;;1.90;;
64244;SDS011;50584;29.058;-110.966;2023-07-28T06:14:18;6.32;;;1.80;;
64244;SDS011;50584;29.058;-110.966;2023-07-28T06:16:44;8.30;;;1.50;;
64244;SDS011;50584;29.058;-110.966;2023-07-28T06:19:10;3.30;;;1.80;;
64244;SDS011;50584;29.058;-110.966;2023-07-28T06:21:35;6.50;;;2.20;;
64244;SDS011;50584;29.058;-110.966;2023-07-28T06:24:01;4.85;;;2.25;;
64244;SDS011;50584;29.058;-110.966;2023-07-28T06:26:27;6.50;;;2.63;;
64244;SDS011;50584;29.058;-110.966;2023-07-28T06:28:53;4.50;;;2.15;;
64244;SDS011;50584;29.058;-110.966;2023-07-28T06:31:18;3.85;;;2.20;;
64244;SDS011;50584;29.058;-110.966;2023-07-28T06:33:46;4.45;;;2.20;;
64244;SDS011;50584;29.058;-110.966;2023-07-28T06:36:12;5.55;;;2.15;;
64244;SDS011;50584;29.058;-110.966;2023-07-28T06:38:38;4.60;;;2.25;;
64244;SDS011;50584;29.058;-110.966;2023-07-28T06:41:04;4.13;;;2.05;;
64244;SDS011;50584;29.058;-110.966;2023-07-28T06:43:30;5.43;;;2.75;;
64244;SDS011;50584;29.058;-110.966;2023-07-28T06:45:56;7.43;;;2.00;;
64244;SDS011;50584;29.058;-110.966;2023-07-28T06:48:22;11.52;;;2.45;;
64244;SDS011;50584;29.058;-110.966;2023-07-28T06:50:47;10.65;;;2.75;;
64244;SDS011;50584;29.058;-110.966;2023-07-28T06:53:13;6.50;;;1.83;;
64244;SDS011;50584;29.058;-110.966;2023-07-28T06:55:39;8.35;;;2.45;;
64244;SDS011;50584;29.058;-110.966;2023-07-28T06:58:05;4.72;;;2.20;;
64244;SDS011;50584;29.058;-110.966;2023-07-28T07:00:31;5.20;;;2.05;;
64244;SDS011;50584;29.058;-110.966;2023-07-28T07:02:57;6.13;;;2.33;;
64244;SDS011;50584;29.058;-110.966;2023-07-28T07:05:23;7.20;;;2.65;;
64244;SDS011;50584;29.058;-110.966;2023-07-28T07:07:49;6.78;;;2.47;;
64244;SDS011;50584;29.058;-110.966;2023-07-28T07:10:15;9.40;;;2.80;;
64244;SDS011;50584;29.058;-110.966;2023-07-28T07:12:40;11.60;;;3.33;;
64244;SDS011;50584;29.058;-110.966;2023-07-28T07:15:06;7.63;;;3.55;;
64244;SDS011;50584;29.058;-110.966;2023-07-28T07:17:32;11.30;;;2.90;;
64244;SDS011;50584;29.058;-110.966;2023-07-28T07:19:58;6.28;;;2.83;;
64244;SDS011;50584;29.058;-110.966;2023-07-28T07:22:24;9.43;;;3.10;;
64244;SDS011;50584;29.058;-110.966;2023-07-28T07:24:50;9.50;;;3.00;;
64244;SDS011;50584;29.058;-110.966;2023-07-28T07:27:16;5.50;;;2.72;;
64244;SDS011;50584;29.058;-110.966;2023-07-28T07:29:41;5.93;;;2.65;;
64244;SDS011;50584;29.058;-110.966;2023-07-28T07:32:08;7.43;;;2.97;;
64244;SDS011;50584;29.058;-110.966;2023-07-28T07:34:35;5.75;;;2.80;;
64244;SDS011;50584;29.058;-110.966;2023-07-28T07:37:02;4.45;;;2.88;;
64244;SDS011;50584;29.058;-110.966;2023-07-28T07:39:28;9.73;;;2.92;;
64244;SDS011;50584;29.058;-110.966;2023-07-28T07:41:54;7.50;;;2.92;;
64244;SDS011;50584;29.058;-110.966;2023-07-28T07:44:20;6.75;;;2.80;;
64244;SDS011;50584;29.058;-110.966;2023-07-28T07:46:45;12.25;;;2.80;;
64244;SDS011;50584;29.058;-110.966;2023-07-28T07:49:11;14.35;;;3.00;;
64244;SDS011;50584;29.058;-110.966;2023-07-28T07:51:37;10.88;;;3.28;;
64244;SDS011;50584;29.058;-110.966;2023-07-28T07:54:03;7.45;;;2.90;;
64244;SDS011;50584;29.058;-110.966;2023-07-28T07:56:29;6.72;;;2.88;;
64244;SDS011;50584;29.058;-110.966;2023-07-28T07:58:54;5.28;;;3.05;;
64244;SDS011;50584;29.058;-110.966;2023-07-28T08:01:20;9.88;;;2.63;;
64244;SDS011;50584;29.058;-110.966;2023-07-28T08:03:46;11.98;;;2.78;;
64244;SDS011;50584;29.058;-110.966;2023-07-28T08:06:13;11.07;;;3.20;;
64244;SDS011;50584;29.058;-110.966;2023-07-28T08:08:38;12.32;;;2.55;;
64244;SDS011;50584;29.058;-110.966;2023-07-28T08:11:04;5.90;;;2.47;;
64244;SDS011;50584;29.058;-110.966;2023-07-28T08:13:31;3.33;;;2.20;;
64244;SDS011;50584;29.058;-110.966;2023-07-28T08:15:56;7.25;;;2.47;;
64244;SDS011;50584;29.058;-110.966;2023-07-28T08:18:22;5.45;;;2.65;;
64244;SDS011;50584;29.058;-110.966;2023-07-28T08:20:48;6.50;;;2.47;;
64244;SDS011;50584;29.058;-110.966;2023-07-28T08:23:14;5.82;;;2.40;;
64244;SDS011;50584;29.058;-110.966;2023-07-28T08:25:39;13.82;;;2.85;;
64244;SDS011;50584;29.058;-110.966;2023-07-28T08:28:05;18.80;;;3.70;;
64244;SDS011;50584;29.058;-110.966;2023-07-28T08:30:31;19.77;;;3.30;;
64244;SDS011;50584;29.058;-110.966;2023-07-28T08:32:57;10.27;;;2.70;;
64244;SDS011;50584;29.058;-110.966;2023-07-28T08:35:23;32.75;;;4.18;;
64244;SDS011;50584;29.058;-110.966;2023-07-28T08:37:49;9.70;;;3.08;;
64244;SDS011;50584;29.058;-110.966;2023-07-28T08:40:15;17.02;;;3.00;;
64244;SDS011;50584;29.058;-110.966;2023-07-28T08:42:40;10.65;;;3.03;;
64244;SDS011;50584;29.058;-110.966;2023-07-28T08:45:06;19.00;;;2.88;;
64244;SDS011;50584;29.058;-110.966;2023-07-28T08:47:34;23.45;;;3.25;;
64244;SDS011;50584;29.058;-110.966;2023-07-28T08:50:00;70.68;;;6.38;;
64244;SDS011;50584;29.058;-110.966;2023-07-28T08:52:25;229.43;;;13.05;;
64244;SDS011;50584;29.058;-110.966;2023-07-28T08:54:51;107.10;;;7.15;;
64244;SDS011;50584;29.058;-110.966;2023-07-28T08:57:17;45.50;;;4.47;;
64244;SDS011;50584;29.058;-110.966;2023-07-28T08:59:44;36.92;;;4.95;;
64244;SDS011;50584;29.058;-110.966;2023-07-28T09:02:16;12.95;;;3.80;;
64244;SDS011;50584;29.058;-110.966;2023-07-28T09:04:42;9.32;;;2.88;;
64244;SDS011;50584;29.058;-110.966;2023-07-28T09:07:08;20.60;;;3.33;;
64244;SDS011;50584;29.058;-110.966;2023-07-28T09:09:35;18.95;;;2.97;;
64244;SDS011;50584;29.058;-110.966;2023-07-28T09:12:02;18.38;;;3.63;;
64244;SDS011;50584;29.058;-110.966;2023-07-28T09:14:29;6.35;;;1.63;;
64244;SDS011;50584;29.058;-110.966;2023-07-28T09:16:55;6.05;;;1.70;;
64244;SDS011;50584;29.058;-110.966;2023-07-28T09:19:21;7.75;;;1.85;;
64244;SDS011;50584;29.058;-110.966;2023-07-28T09:21:57;3.53;;;1.90;;
64244;SDS011;50584;29.058;-110.966;2023-07-28T09:24:28;1.25;;;1.15;;
64244;SDS011;50584;29.058;-110.966;2023-07-28T09:26:55;5.53;;;0.90;;
64244;SDS011;50584;29.058;-110.966;2023-07-28T09:29:21;8.07;;;1.02;;
64244;SDS011;50584;29.058;-110.966;2023-07-28T09:31:48;2.83;;;0.70;;
64244;SDS011;50584;29.058;-110.966;2023-07-28T09:34:25;1.73;;;1.20;;
64244;SDS011;50584;29.058;-110.966;2023-07-28T09:36:54;0.88;;;0.70;;
64244;SDS011;50584;29.058;-110.966;2023-07-28T09:39:20;0.55;;;0.55;;
64244;SDS011;50584;29.058;-110.966;2023-07-28T09:41:46;2.10;;;1.02;;
64244;SDS011;50584;29.058;-110.966;2023-07-28T09:44:12;0.95;;;0.70;;
64244;SDS011;50584;29.058;-110.966;2023-07-28T09:46:42;1.85;;;0.70;;
64244;SDS011;50584;29.058;-110.966;2023-07-28T09:49:13;0.52;;;0.52;;
64244;SDS011;50584;29.058;-110.966;2023-07-28T09:51:39;0.95;;;0.90;;
64244;SDS011;50584;29.058;-110.966;2023-07-28T09:54:11;3.63;;;1.00;;
64244;SDS011;50584;29.058;-110.966;2023-07-28T09:56:37;2.33;;;0.98;;
64244;SDS011;50584;29.058;-110.966;2023-07-28T09:59:07;3.15;;;0.98;;
64244;SDS011;50584;29.058;-110.966;2023-07-28T10:01:36;2.35;;;0.85;;
64244;SDS011;50584;29.058;-110.966;2023-07-28T10:04:01;1.20;;;0.95;;
64244;SDS011;50584;29.058;-110.966;2023-07-28T10:06:28;2.97;;;1.00;;
64244;SDS011;50584;29.058;-110.966;2023-07-28T10:08:54;2.75;;;0.82;;
64244;SDS011;50584;29.058;-110.966;2023-07-28T10:11:20;1.75;;;0.98;;
64244;SDS011;50584;29.058;-110.966;2023-07-28T10:13:47;0.95;;;0.88;;
64244;SDS011;50584;29.058;-110.966;2023-07-28T10:16:13;5.63;;;1.15;;
64244;SDS011;50584;29.058;-110.966;2023-07-28T10:18:41;3.05;;;0.75;;
64244;SDS011;50584;29.058;-110.966;2023-07-28T10:21:10;0.70;;;0.70;;
64244;SDS011;50584;29.058;-110.966;2023-07-28T10:23:40;1.58;;;0.75;;
64244;SDS011;50584;29.058;-110.966;2023-07-28T10:26:07;1.17;;;0.93;;
64244;SDS011;50584;29.058;-110.966;2023-07-28T10:28:39;1.27;;;0.80;;
64244;SDS011;50584;29.058;-110.966;2023-07-28T10:31:08;1.27;;;0.90;;
64244;SDS011;50584;29.058;-110.966;2023-07-28T10:38:36;2.25;;;2.08;;
64244;SDS011;50584;29.058;-110.966;2023-07-28T10:41:20;4.18;;;2.65;;
64244;SDS011;50584;29.058;-110.966;2023-07-28T10:43:46;6.68;;;2.60;;
64244;SDS011;50584;29.058;-110.966;2023-07-28T10:46:13;2.95;;;2.45;;
64244;SDS011;50584;29.058;-110.966;2023-07-28T10:48:43;6.65;;;1.85;;
64244;SDS011;50584;29.058;-110.966;2023-07-28T10:51:10;1.88;;;1.67;;
64244;SDS011;50584;29.058;-110.966;2023-07-28T10:53:37;2.65;;;1.50;;
64244;SDS011;50584;29.058;-110.966;2023-07-28T10:56:02;1.83;;;1.33;;
64244;SDS011;50584;29.058;-110.966;2023-07-28T10:58:30;3.15;;;1.40;;
64244;SDS011;50584;29.058;-110.966;2023-07-28T11:00:56;5.30;;;1.40;;
64244;SDS011;50584;29.058;-110.966;2023-07-28T11:03:22;1.35;;;1.10;;
64244;SDS011;50584;29.058;-110.966;2023-07-28T11:05:48;1.80;;;1.13;;
64244;SDS011;50584;29.058;-110.966;2023-07-28T11:08:17;2.95;;;1.48;;
64244;SDS011;50584;29.058;-110.966;2023-07-28T11:10:43;2.05;;;1.10;;
64244;SDS011;50584;29.058;-110.966;2023-07-28T11:13:09;4.88;;;1.20;;
64244;SDS011;50584;29.058;-110.966;2023-07-28T11:15:34;2.90;;;1.10;;
64244;SDS011;50584;29.058;-110.966;2023-07-28T11:18:00;3.08;;;1.00;;
64244;SDS011;50584;29.058;-110.966;2023-07-28T11:20:28;3.33;;;1.27;;
64244;SDS011;50584;29.058;-110.966;2023-07-28T11:22:55;2.40;;;0.93;;
64244;SDS011;50584;29.058;-110.966;2023-07-28T11:25:22;0.80;;;0.80;;
64244;SDS011;50584;29.058;-110.966;2023-07-28T11:27:48;1.00;;;1.00;;
64244;SDS011;50584;29.058;-110.966;2023-07-28T11:30:15;2.22;;;1.00;;
64244;SDS011;50584;29.058;-110.966;2023-07-28T11:32:48;0.93;;;0.80;;
64244;SDS011;50584;29.058;-110.966;2023-07-28T11:35:14;2.47;;;0.95;;
64244;SDS011;50584;29.058;-110.966;2023-07-28T11:37:42;3.38;;;1.10;;
64244;SDS011;50584;29.058;-110.966;2023-07-28T11:40:08;9.82;;;1.27;;
64244;SDS011;50584;29.058;-110.966;2023-07-28T11:42:38;3.00;;;1.10;;
64244;SDS011;50584;29.058;-110.966;2023-07-28T11:45:04;2.70;;;1.40;;
64244;SDS011;50584;29.058;-110.966;2023-07-28T11:47:31;1.38;;;1.27;;
64244;SDS011;50584;29.058;-110.966;2023-07-28T11:49:57;2.78;;;1.40;;
64244;SDS011;50584;29.058;-110.966;2023-07-28T11:52:32;3.60;;;1.42;;
64244;SDS011;50584;29.058;-110.966;2023-07-28T11:54:59;1.92;;;1.38;;
64244;SDS011;50584;29.058;-110.966;2023-07-28T11:57:26;1.52;;;1.25;;
64244;SDS011;50584;29.058;-110.966;2023-07-28T11:59:52;3.35;;;1.35;;
64244;SDS011;50584;29.058;-110.966;2023-07-28T12:02:27;5.05;;;1.38;;
64244;SDS011;50584;29.058;-110.966;2023-07-28T12:04:54;2.08;;;1.30;;
64244;SDS011;50584;29.058;-110.966;2023-07-28T12:07:28;2.78;;;1.35;;
64244;SDS011;50584;29.058;-110.966;2023-07-28T12:10:02;5.80;;;1.30;;
64244;SDS011;50584;29.058;-110.966;2023-07-28T12:12:29;4.63;;;1.48;;
64244;SDS011;50584;29.058;-110.966;2023-07-28T12:14:56;1.30;;;1.20;;
64244;SDS011;50584;29.058;-110.966;2023-07-28T12:17:24;2.97;;;1.17;;
64244;SDS011;50584;29.058;-110.966;2023-07-28T12:22:26;3.47;;;1.30;;
64244;SDS011;50584;29.058;-110.966;2023-07-28T12:24:52;5.50;;;1.20;;
64244;SDS011;50584;29.058;-110.966;2023-07-28T12:27:18;2.13;;;1.48;;
64244;SDS011;50584;29.058;-110.966;2023-07-28T12:29:49;6.57;;;1.33;;
64244;SDS011;50584;29.058;-110.966;2023-07-28T12:32:14;3.78;;;0.90;;
64244;SDS011;50584;29.058;-110.966;2023-07-28T12:34:40;6.82;;;1.30;;
64244;SDS011;50584;29.058;-110.966;2023-07-28T12:37:06;0.88;;;0.88;;
64244;SDS011;50584;29.058;-110.966;2023-07-28T12:39:33;1.25;;;0.88;;
64244;SDS011;50584;29.058;-110.966;2023-07-28T12:41:59;6.25;;;1.08;;
64244;SDS011;50584;29.058;-110.966;2023-07-28T12:44:24;3.83;;;0.82;;
64244;SDS011;50584;29.058;-110.966;2023-07-28T12:46:50;2.92;;;0.90;;
64244;SDS011;50584;29.058;-110.966;2023-07-28T12:49:16;3.70;;;0.93;;
64244;SDS011;50584;29.058;-110.966;2023-07-28T12:51:44;2.63;;;0.90;;
64244;SDS011;50584;29.058;-110.966;2023-07-28T12:54:10;8.23;;;1.02;;
64244;SDS011;50584;29.058;-110.966;2023-07-28T12:56:36;3.75;;;0.98;;
64244;SDS011;50584;29.058;-110.966;2023-07-28T12:59:02;3.40;;;1.40;;
64244;SDS011;50584;29.058;-110.966;2023-07-28T13:01:27;5.72;;;1.05;;
64244;SDS011;50584;29.058;-110.966;2023-07-28T13:03:53;4.28;;;1.27;;
64244;SDS011;50584;29.058;-110.966;2023-07-28T13:06:19;0.98;;;0.95;;
64244;SDS011;50584;29.058;-110.966;2023-07-28T13:08:45;2.53;;;1.10;;
64244;SDS011;50584;29.058;-110.966;2023-07-28T13:11:11;1.38;;;1.10;;
64244;SDS011;50584;29.058;-110.966;2023-07-28T13:13:39;1.45;;;0.93;;
64244;SDS011;50584;29.058;-110.966;2023-07-28T13:16:05;2.00;;;0.80;;
64244;SDS011;50584;29.058;-110.966;2023-07-28T13:18:31;3.10;;;1.27;;
64244;SDS011;50584;29.058;-110.966;2023-07-28T13:20:58;8.10;;;1.13;;
64244;SDS011;50584;29.058;-110.966;2023-07-28T13:23:24;1.73;;;0.80;;
64244;SDS011;50584;29.058;-110.966;2023-07-28T13:25:50;3.95;;;1.00;;
64244;SDS011;50584;29.058;-110.966;2023-07-28T13:28:17;2.80;;;1.20;;
64244;SDS011;50584;29.058;-110.966;2023-07-28T13:30:43;3.33;;;1.05;;
64244;SDS011;50584;29.058;-110.966;2023-07-28T13:33:09;3.63;;;1.20;;
64244;SDS011;50584;29.058;-110.966;2023-07-28T13:35:34;3.80;;;1.45;;
64244;SDS011;50584;29.058;-110.966;2023-07-28T13:38:00;4.88;;;1.70;;
64244;SDS011;50584;29.058;-110.966;2023-07-28T13:40:26;8.95;;;3.22;;
64244;SDS011;50584;29.058;-110.966;2023-07-28T13:42:51;7.63;;;3.00;;
64244;SDS011;50584;29.058;-110.966;2023-07-28T13:45:18;8.00;;;2.50;;
64244;SDS011;50584;29.058;-110.966;2023-07-28T13:47:44;7.30;;;1.83;;
64244;SDS011;50584;29.058;-110.966;2023-07-28T13:50:09;5.95;;;1.48;;
64244;SDS011;50584;29.058;-110.966;2023-07-28T13:52:35;2.67;;;1.55;;
64244;SDS011;50584;29.058;-110.966;2023-07-28T13:55:01;2.58;;;1.00;;
64244;SDS011;50584;29.058;-110.966;2023-07-28T13:57:28;6.65;;;1.20;;
64244;SDS011;50584;29.058;-110.966;2023-07-28T13:59:53;3.58;;;1.00;;
64244;SDS011;50584;29.058;-110.966;2023-07-28T14:02:19;2.05;;;1.00;;
64244;SDS011;50584;29.058;-110.966;2023-07-28T14:04:45;1.13;;;0.90;;
64244;SDS011;50584;29.058;-110.966;2023-07-28T14:07:11;1.52;;;0.90;;
64244;SDS011;50584;29.058;-110.966;2023-07-28T14:09:36;4.43;;;1.48;;
64244;SDS011;50584;29.058;-110.966;2023-07-28T14:12:03;2.22;;;0.82;;